sensor_id;sensor_type;location;lat;lon;timestamp;P1;durP1;ratioP1;P2;durP2;ratioP2
5718;SDS011;2884;47.734;9.244;2022-11-15T00:00:32;5.45;;;4.65;;
5718;SDS011;2884;47.734;9.244;2022-11-15T00:02:58;5.30;;;4.90;;
5718;SDS011;2884;47.734;9.244;2022-11-15T00:05:24;5.10;;;4.67;;
5718;SDS011;2884;47.734;9.244;2022-11-15T00:07:49;5.60;;;5.10;;
5718;SDS011;2884;47.734;9.244;2022-11-15T00:10:15;4.53;;;4.13;;
5718;SDS011;2884;47.734;9.244;2022-11-15T00:12:43;5.18;;;4.72;;
5718;SDS011;2884;47.734;9.244;2022-11-15T00:15:08;4.97;;;4.57;;
5718;SDS011;2884;47.734;9.244;2022-11-15T00:17:34;4.67;;;4.27;;
5718;SDS011;2884;47.734;9.244;2022-11-15T00:19:59;5.80;;;5.20;;
5718;SDS011;2884;47.734;9.244;2022-11-15T00:22:32;5.28;;;4.03;;
5718;SDS011;2884;47.734;9.244;2022-11-15T00:24:58;4.30;;;4.00;;
5718;SDS011;2884;47.734;9.244;2022-11-15T00:27:23;6.70;;;4.97;;
5718;SDS011;2884;47.734;9.244;2022-11-15T00:29:49;5.83;;;4.60;;
5718;SDS011;2884;47.734;9.244;2022-11-15T00:32:14;5.27;;;4.77;;
5718;SDS011;2884;47.734;9.244;2022-11-15T00:34:40;4.97;;;4.57;;
5718;SDS011;2884;47.734;9.244;2022-11-15T00:37:05;4.87;;;4.37;;
5718;SDS011;2884;47.734;9.244;2022-11-15T00:39:31;4.90;;;4.50;;
5718;SDS011;2884;47.734;9.244;2022-11-15T00:41:58;6.07;;;4.32;;
5718;SDS011;2884;47.734;9.244;2022-11-15T00:44:24;5.93;;;4.97;;
5718;SDS011;2884;47.734;9.244;2022-11-15T00:46:49;6.60;;;4.07;;
5718;SDS011;2884;47.734;9.244;2022-11-15T00:49:15;13.80;;;5.47;;
5718;SDS011;2884;47.734;9.244;2022-11-15T00:51:40;6.90;;;5.93;;
5718;SDS011;2884;47.734;9.244;2022-11-15T00:54:06;6.20;;;5.60;;
5718;SDS011;2884;47.734;9.244;2022-11-15T00:56:32;9.70;;;5.63;;
5718;SDS011;2884;47.734;9.244;2022-11-15T00:58:57;5.30;;;4.80;;
5718;SDS011;2884;47.734;9.244;2022-11-15T01:01:23;4.40;;;4.00;;
5718;SDS011;2884;47.734;9.244;2022-11-15T01:03:51;4.80;;;4.30;;
5718;SDS011;2884;47.734;9.244;2022-11-15T01:06:16;4.50;;;4.10;;
5718;SDS011;2884;47.734;9.244;2022-11-15T01:08:42;3.50;;;3.20;;
5718;SDS011;2884;47.734;9.244;2022-11-15T01:11:09;4.40;;;4.00;;
5718;SDS011;2884;47.734;9.244;2022-11-15T01:13:37;4.15;;;3.78;;
5718;SDS011;2884;47.734;9.244;2022-11-15T01:16:11;4.00;;;3.70;;
5718;SDS011;2884;47.734;9.244;2022-11-15T01:18:38;4.05;;;3.67;;
5718;SDS011;2884;47.734;9.244;2022-11-15T01:21:11;4.30;;;3.67;;
5718;SDS011;2884;47.734;9.244;2022-11-15T01:23:41;3.65;;;3.42;;
5718;SDS011;2884;47.734;9.244;2022-11-15T01:26:07;4.30;;;3.93;;
5718;SDS011;2884;47.734;9.244;2022-11-15T01:28:35;3.75;;;3.45;;
5718;SDS011;2884;47.734;9.244;2022-11-15T01:31:03;3.97;;;3.60;;
5718;SDS011;2884;47.734;9.244;2022-11-15T01:33:30;7.60;;;3.80;;
5718;SDS011;2884;47.734;9.244;2022-11-15T01:35:56;4.23;;;3.83;;
5718;SDS011;2884;47.734;9.244;2022-11-15T01:38:22;6.38;;;3.85;;
5718;SDS011;2884;47.734;9.244;2022-11-15T01:40:48;7.50;;;4.17;;
5718;SDS011;2884;47.734;9.244;2022-11-15T01:43:21;4.57;;;3.80;;
5718;SDS011;2884;47.734;9.244;2022-11-15T01:45:57;9.02;;;5.18;;
5718;SDS011;2884;47.734;9.244;2022-11-15T01:48:25;4.40;;;4.00;;
5718;SDS011;2884;47.734;9.244;2022-11-15T01:50:57;5.28;;;4.60;;
5718;SDS011;2884;47.734;9.244;2022-11-15T01:53:24;5.53;;;5.00;;
5718;SDS011;2884;47.734;9.244;2022-11-15T01:55:50;8.17;;;6.00;;
5718;SDS011;2884;47.734;9.244;2022-11-15T01:58:15;9.00;;;6.00;;
5718;SDS011;2884;47.734;9.244;2022-11-15T02:00:48;7.05;;;5.10;;
5718;SDS011;2884;47.734;9.244;2022-11-15T02:03:15;7.03;;;5.90;;
5718;SDS011;2884;47.734;9.244;2022-11-15T02:05:41;4.75;;;4.20;;
5718;SDS011;2884;47.734;9.244;2022-11-15T02:08:07;5.20;;;4.70;;
5718;SDS011;2884;47.734;9.244;2022-11-15T02:10:34;4.90;;;4.43;;
5718;SDS011;2884;47.734;9.244;2022-11-15T02:12:59;5.50;;;5.00;;
5718;SDS011;2884;47.734;9.244;2022-11-15T02:15:26;5.40;;;5.00;;
5718;SDS011;2884;47.734;9.244;2022-11-15T02:18:16;4.65;;;4.30;;
5718;SDS011;2884;47.734;9.244;2022-11-15T02:21:11;10.32;;;4.95;;
5718;SDS011;2884;47.734;9.244;2022-11-15T02:29:35;5.10;;;4.70;;
5718;SDS011;2884;47.734;9.244;2022-11-15T02:32:06;5.63;;;5.13;;
5718;SDS011;2884;47.734;9.244;2022-11-15T02:40:04;5.82;;;5.22;;
5718;SDS011;2884;47.734;9.244;2022-11-15T02:42:36;5.85;;;5.25;;
5718;SDS011;2884;47.734;9.244;2022-11-15T02:45:24;5.63;;;5.00;;
5718;SDS011;2884;47.734;9.244;2022-11-15T02:47:52;5.30;;;4.80;;
5718;SDS011;2884;47.734;9.244;2022-11-15T02:50:20;5.30;;;4.20;;
5718;SDS011;2884;47.734;9.244;2022-11-15T02:52:48;5.88;;;4.60;;
5718;SDS011;2884;47.734;9.244;2022-11-15T02:57:55;4.72;;;4.15;;
5718;SDS011;2884;47.734;9.244;2022-11-15T03:00:30;4.97;;;4.50;;
5718;SDS011;2884;47.734;9.244;2022-11-15T03:05:51;7.15;;;4.60;;
5718;SDS011;2884;47.734;9.244;2022-11-15T03:08:32;4.55;;;4.15;;
5718;SDS011;2884;47.734;9.244;2022-11-15T03:11:07;3.90;;;3.60;;
5718;SDS011;2884;47.734;9.244;2022-11-15T03:13:36;5.25;;;4.35;;
5718;SDS011;2884;47.734;9.244;2022-11-15T03:16:08;3.92;;;3.65;;
5718;SDS011;2884;47.734;9.244;2022-11-15T03:21:33;4.00;;;3.72;;
5718;SDS011;2884;47.734;9.244;2022-11-15T03:24:01;5.05;;;4.55;;
5718;SDS011;2884;47.734;9.244;2022-11-15T03:26:29;4.88;;;3.95;;
5718;SDS011;2884;47.734;9.244;2022-11-15T03:28:56;5.60;;;4.90;;
5718;SDS011;2884;47.734;9.244;2022-11-15T03:31:27;4.72;;;4.32;;
5718;SDS011;2884;47.734;9.244;2022-11-15T03:34:31;5.68;;;4.45;;
5718;SDS011;2884;47.734;9.244;2022-11-15T03:36:59;4.15;;;3.75;;
5718;SDS011;2884;47.734;9.244;2022-11-15T03:39:25;6.07;;;4.80;;
5718;SDS011;2884;47.734;9.244;2022-11-15T03:44:34;10.07;;;4.47;;
5718;SDS011;2884;47.734;9.244;2022-11-15T03:47:20;5.38;;;4.88;;
5718;SDS011;2884;47.734;9.244;2022-11-15T03:49:53;5.22;;;4.72;;
5718;SDS011;2884;47.734;9.244;2022-11-15T03:52:22;4.60;;;4.20;;
5718;SDS011;2884;47.734;9.244;2022-11-15T03:54:52;4.80;;;4.20;;
5718;SDS011;2884;47.734;9.244;2022-11-15T03:57:20;5.00;;;4.30;;
5718;SDS011;2884;47.734;9.244;2022-11-15T03:59:45;4.20;;;3.90;;
5718;SDS011;2884;47.734;9.244;2022-11-15T04:02:11;8.43;;;3.90;;
5718;SDS011;2884;47.734;9.244;2022-11-15T04:04:37;3.90;;;3.60;;
5718;SDS011;2884;47.734;9.244;2022-11-15T04:10:49;4.28;;;3.88;;
5718;SDS011;2884;47.734;9.244;2022-11-15T04:13:15;4.63;;;3.40;;
5718;SDS011;2884;47.734;9.244;2022-11-15T04:15:40;4.53;;;4.13;;
5718;SDS011;2884;47.734;9.244;2022-11-15T04:18:06;5.23;;;4.27;;
5718;SDS011;2884;47.734;9.244;2022-11-15T04:20:32;3.93;;;3.73;;
5718;SDS011;2884;47.734;9.244;2022-11-15T04:23:16;5.20;;;4.35;;
5718;SDS011;2884;47.734;9.244;2022-11-15T04:26:05;5.70;;;3.90;;
5718;SDS011;2884;47.734;9.244;2022-11-15T04:28:35;5.20;;;3.75;;
5718;SDS011;2884;47.734;9.244;2022-11-15T04:31:21;5.60;;;4.15;;
5718;SDS011;2884;47.734;9.244;2022-11-15T04:33:47;8.00;;;4.07;;
5718;SDS011;2884;47.734;9.244;2022-11-15T04:36:14;4.90;;;4.33;;
5718;SDS011;2884;47.734;9.244;2022-11-15T04:38:58;6.95;;;4.53;;
5718;SDS011;2884;47.734;9.244;2022-11-15T04:41:24;6.70;;;5.07;;
5718;SDS011;2884;47.734;9.244;2022-11-15T04:43:49;4.50;;;4.07;;
5718;SDS011;2884;47.734;9.244;2022-11-15T04:46:15;5.10;;;4.60;;
5718;SDS011;2884;47.734;9.244;2022-11-15T04:48:40;4.33;;;4.03;;
5718;SDS011;2884;47.734;9.244;2022-11-15T04:51:06;6.17;;;4.30;;
5718;SDS011;2884;47.734;9.244;2022-11-15T04:53:31;9.87;;;4.80;;
5718;SDS011;2884;47.734;9.244;2022-11-15T04:55:57;5.50;;;3.97;;
5718;SDS011;2884;47.734;9.244;2022-11-15T04:58:22;5.00;;;4.50;;
5718;SDS011;2884;47.734;9.244;2022-11-15T05:00:48;4.53;;;4.05;;
5718;SDS011;2884;47.734;9.244;2022-11-15T05:03:14;4.37;;;3.50;;
5718;SDS011;2884;47.734;9.244;2022-11-15T05:05:58;4.63;;;4.05;;
5718;SDS011;2884;47.734;9.244;2022-11-15T05:08:24;6.77;;;4.67;;
5718;SDS011;2884;47.734;9.244;2022-11-15T05:10:50;4.10;;;3.70;;
5718;SDS011;2884;47.734;9.244;2022-11-15T05:13:16;4.93;;;3.63;;
5718;SDS011;2884;47.734;9.244;2022-11-15T05:15:41;3.17;;;2.90;;
5718;SDS011;2884;47.734;9.244;2022-11-15T05:18:07;2.97;;;2.77;;
5718;SDS011;2884;47.734;9.244;2022-11-15T05:20:32;4.93;;;3.90;;
5718;SDS011;2884;47.734;9.244;2022-11-15T05:22:58;6.00;;;3.63;;
5718;SDS011;2884;47.734;9.244;2022-11-15T05:25:23;4.73;;;4.23;;
5718;SDS011;2884;47.734;9.244;2022-11-15T05:27:50;3.92;;;3.63;;
5718;SDS011;2884;47.734;9.244;2022-11-15T05:30:15;5.13;;;4.13;;
5718;SDS011;2884;47.734;9.244;2022-11-15T05:32:41;4.73;;;3.67;;
5718;SDS011;2884;47.734;9.244;2022-11-15T05:35:08;4.03;;;3.63;;
5718;SDS011;2884;47.734;9.244;2022-11-15T05:37:37;5.35;;;3.90;;
5718;SDS011;2884;47.734;9.244;2022-11-15T05:40:03;3.93;;;3.30;;
5718;SDS011;2884;47.734;9.244;2022-11-15T05:42:29;4.60;;;4.10;;
5718;SDS011;2884;47.734;9.244;2022-11-15T05:44:54;5.70;;;4.33;;
5718;SDS011;2884;47.734;9.244;2022-11-15T05:47:23;5.45;;;4.78;;
5718;SDS011;2884;47.734;9.244;2022-11-15T05:49:50;11.57;;;5.50;;
5718;SDS011;2884;47.734;9.244;2022-11-15T05:52:17;4.55;;;4.15;;
5718;SDS011;2884;47.734;9.244;2022-11-15T05:54:45;6.35;;;4.40;;
5718;SDS011;2884;47.734;9.244;2022-11-15T05:57:11;5.85;;;4.80;;
5718;SDS011;2884;47.734;9.244;2022-11-15T05:59:37;4.50;;;4.10;;
5718;SDS011;2884;47.734;9.244;2022-11-15T06:02:03;5.60;;;4.30;;
5718;SDS011;2884;47.734;9.244;2022-11-15T06:04:28;8.70;;;4.83;;
5718;SDS011;2884;47.734;9.244;2022-11-15T06:06:54;12.97;;;4.70;;
5718;SDS011;2884;47.734;9.244;2022-11-15T06:09:19;4.00;;;3.70;;
5718;SDS011;2884;47.734;9.244;2022-11-15T06:11:45;4.17;;;3.80;;
5718;SDS011;2884;47.734;9.244;2022-11-15T06:14:11;4.00;;;3.63;;
5718;SDS011;2884;47.734;9.244;2022-11-15T06:16:36;4.47;;;4.07;;
5718;SDS011;2884;47.734;9.244;2022-11-15T06:19:02;4.20;;;3.80;;
5718;SDS011;2884;47.734;9.244;2022-11-15T06:21:27;4.37;;;3.97;;
5718;SDS011;2884;47.734;9.244;2022-11-15T06:23:54;4.95;;;4.10;;
5718;SDS011;2884;47.734;9.244;2022-11-15T06:26:19;5.27;;;4.30;;
5718;SDS011;2884;47.734;9.244;2022-11-15T06:28:45;5.40;;;3.87;;
5718;SDS011;2884;47.734;9.244;2022-11-15T06:31:11;5.97;;;4.20;;
5718;SDS011;2884;47.734;9.244;2022-11-15T06:33:37;4.10;;;3.78;;
5718;SDS011;2884;47.734;9.244;2022-11-15T06:36:04;6.03;;;3.75;;
5718;SDS011;2884;47.734;9.244;2022-11-15T06:38:30;5.15;;;3.60;;
5718;SDS011;2884;47.734;9.244;2022-11-15T06:41:05;4.27;;;3.87;;
5718;SDS011;2884;47.734;9.244;2022-11-15T06:43:35;4.85;;;4.18;;
5718;SDS011;2884;47.734;9.244;2022-11-15T06:46:01;8.70;;;4.60;;
5718;SDS011;2884;47.734;9.244;2022-11-15T06:48:28;10.20;;;4.95;;
5718;SDS011;2884;47.734;9.244;2022-11-15T06:50:55;11.73;;;5.18;;
5718;SDS011;2884;47.734;9.244;2022-11-15T06:53:22;25.38;;;5.63;;
5718;SDS011;2884;47.734;9.244;2022-11-15T06:55:50;9.27;;;5.63;;
5718;SDS011;2884;47.734;9.244;2022-11-15T06:58:16;21.00;;;5.63;;
5718;SDS011;2884;47.734;9.244;2022-11-15T07:00:42;18.60;;;4.90;;
5718;SDS011;2884;47.734;9.244;2022-11-15T07:03:07;14.53;;;5.90;;
5718;SDS011;2884;47.734;9.244;2022-11-15T07:05:33;21.80;;;6.00;;
5718;SDS011;2884;47.734;9.244;2022-11-15T07:07:59;12.20;;;5.37;;
5718;SDS011;2884;47.734;9.244;2022-11-15T07:10:25;29.23;;;7.20;;
5718;SDS011;2884;47.734;9.244;2022-11-15T07:12:51;21.10;;;6.13;;
5718;SDS011;2884;47.734;9.244;2022-11-15T07:15:18;20.83;;;6.50;;
5718;SDS011;2884;47.734;9.244;2022-11-15T07:17:45;31.92;;;6.60;;
5718;SDS011;2884;47.734;9.244;2022-11-15T07:20:11;13.07;;;4.80;;
5718;SDS011;2884;47.734;9.244;2022-11-15T07:22:38;27.15;;;6.70;;
5718;SDS011;2884;47.734;9.244;2022-11-15T07:25:04;11.82;;;6.78;;
5718;SDS011;2884;47.734;9.244;2022-11-15T07:27:30;32.50;;;7.40;;
5718;SDS011;2884;47.734;9.244;2022-11-15T07:29:56;6.90;;;4.80;;
5718;SDS011;2884;47.734;9.244;2022-11-15T07:32:21;39.30;;;7.13;;
5718;SDS011;2884;47.734;9.244;2022-11-15T07:34:47;32.90;;;6.43;;
5718;SDS011;2884;47.734;9.244;2022-11-15T07:37:12;29.30;;;6.07;;
5718;SDS011;2884;47.734;9.244;2022-11-15T07:39:38;16.50;;;6.20;;
5718;SDS011;2884;47.734;9.244;2022-11-15T07:42:03;18.10;;;6.37;;
5718;SDS011;2884;47.734;9.244;2022-11-15T07:44:47;9.60;;;6.05;;
5718;SDS011;2884;47.734;9.244;2022-11-15T07:47:13;6.97;;;5.80;;
5718;SDS011;2884;47.734;9.244;2022-11-15T07:49:38;15.00;;;6.80;;
5718;SDS011;2884;47.734;9.244;2022-11-15T07:52:04;19.77;;;7.57;;
5718;SDS011;2884;47.734;9.244;2022-11-15T07:54:30;13.60;;;6.93;;
5718;SDS011;2884;47.734;9.244;2022-11-15T07:56:55;18.23;;;7.60;;
5718;SDS011;2884;47.734;9.244;2022-11-15T07:59:21;6.33;;;5.40;;
5718;SDS011;2884;47.734;9.244;2022-11-15T08:01:46;22.50;;;7.17;;
5718;SDS011;2884;47.734;9.244;2022-11-15T08:04:12;13.87;;;7.27;;
5718;SDS011;2884;47.734;9.244;2022-11-15T08:06:37;8.57;;;6.13;;
5718;SDS011;2884;47.734;9.244;2022-11-15T08:09:03;10.47;;;7.27;;
5718;SDS011;2884;47.734;9.244;2022-11-15T08:11:28;8.43;;;6.90;;
5718;SDS011;2884;47.734;9.244;2022-11-15T08:13:54;13.93;;;7.50;;
5718;SDS011;2884;47.734;9.244;2022-11-15T08:16:19;9.47;;;7.13;;
5718;SDS011;2884;47.734;9.244;2022-11-15T08:18:45;18.10;;;7.47;;
5718;SDS011;2884;47.734;9.244;2022-11-15T08:21:11;14.40;;;7.20;;
5718;SDS011;2884;47.734;9.244;2022-11-15T08:23:40;9.00;;;7.25;;
5718;SDS011;2884;47.734;9.244;2022-11-15T08:26:05;7.83;;;6.80;;
5718;SDS011;2884;47.734;9.244;2022-11-15T08:28:31;7.80;;;6.80;;
5718;SDS011;2884;47.734;9.244;2022-11-15T08:30:57;9.97;;;7.10;;
5718;SDS011;2884;47.734;9.244;2022-11-15T08:33:23;7.70;;;6.00;;
5718;SDS011;2884;47.734;9.244;2022-11-15T08:35:48;7.80;;;6.87;;
5718;SDS011;2884;47.734;9.244;2022-11-15T08:38:14;7.53;;;6.70;;
5718;SDS011;2884;47.734;9.244;2022-11-15T08:40:39;8.27;;;6.80;;
5718;SDS011;2884;47.734;9.244;2022-11-15T08:43:05;10.07;;;8.03;;
5718;SDS011;2884;47.734;9.244;2022-11-15T08:45:31;10.80;;;7.83;;
5718;SDS011;2884;47.734;9.244;2022-11-15T08:47:58;8.00;;;7.10;;
5718;SDS011;2884;47.734;9.244;2022-11-15T08:50:28;12.40;;;7.03;;
5718;SDS011;2884;47.734;9.244;2022-11-15T08:52:54;10.37;;;7.73;;
5718;SDS011;2884;47.734;9.244;2022-11-15T08:55:19;9.80;;;7.23;;
5718;SDS011;2884;47.734;9.244;2022-11-15T08:57:45;9.30;;;7.27;;
5718;SDS011;2884;47.734;9.244;2022-11-15T09:00:11;12.10;;;6.77;;
5718;SDS011;2884;47.734;9.244;2022-11-15T09:02:38;9.30;;;7.43;;
5718;SDS011;2884;47.734;9.244;2022-11-15T09:05:04;9.90;;;7.77;;
5718;SDS011;2884;47.734;9.244;2022-11-15T09:07:31;8.67;;;7.77;;
5718;SDS011;2884;47.734;9.244;2022-11-15T09:09:56;8.67;;;7.13;;
5718;SDS011;2884;47.734;9.244;2022-11-15T09:12:24;8.27;;;7.10;;
5718;SDS011;2884;47.734;9.244;2022-11-15T09:14:49;8.30;;;6.80;;
5718;SDS011;2884;47.734;9.244;2022-11-15T09:17:15;7.97;;;6.53;;
5718;SDS011;2884;47.734;9.244;2022-11-15T09:19:41;7.93;;;6.73;;
5718;SDS011;2884;47.734;9.244;2022-11-15T09:22:07;7.80;;;7.00;;
5718;SDS011;2884;47.734;9.244;2022-11-15T09:24:33;7.30;;;6.50;;
5718;SDS011;2884;47.734;9.244;2022-11-15T09:26:59;9.70;;;6.90;;
5718;SDS011;2884;47.734;9.244;2022-11-15T09:29:24;13.03;;;9.70;;
5718;SDS011;2884;47.734;9.244;2022-11-15T09:31:51;13.47;;;9.13;;
5718;SDS011;2884;47.734;9.244;2022-11-15T09:34:18;9.30;;;7.70;;
5718;SDS011;2884;47.734;9.244;2022-11-15T09:36:43;10.03;;;8.20;;
5718;SDS011;2884;47.734;9.244;2022-11-15T09:39:08;15.33;;;9.17;;
5718;SDS011;2884;47.734;9.244;2022-11-15T09:50:15;14.93;;;8.57;;
5718;SDS011;2884;47.734;9.244;2022-11-15T09:52:43;9.70;;;8.67;;
5718;SDS011;2884;47.734;9.244;2022-11-15T09:55:10;10.87;;;9.30;;
5718;SDS011;2884;47.734;9.244;2022-11-15T09:57:41;11.03;;;9.10;;
5718;SDS011;2884;47.734;9.244;2022-11-15T10:03:26;8.67;;;7.77;;
5718;SDS011;2884;47.734;9.244;2022-11-15T10:05:55;10.53;;;7.97;;
5718;SDS011;2884;47.734;9.244;2022-11-15T10:11:03;8.83;;;7.93;;
5718;SDS011;2884;47.734;9.244;2022-11-15T10:13:32;9.17;;;8.23;;
5718;SDS011;2884;47.734;9.244;2022-11-15T10:16:04;9.33;;;7.57;;
5718;SDS011;2884;47.734;9.244;2022-11-15T10:18:46;12.43;;;7.93;;
5718;SDS011;2884;47.734;9.244;2022-11-15T10:21:24;8.23;;;7.27;;
5718;SDS011;2884;47.734;9.244;2022-11-15T10:23:54;8.90;;;8.00;;
5718;SDS011;2884;47.734;9.244;2022-11-15T10:26:20;9.10;;;7.10;;
5718;SDS011;2884;47.734;9.244;2022-11-15T10:28:48;8.10;;;7.40;;
5718;SDS011;2884;47.734;9.244;2022-11-15T10:31:21;8.00;;;7.20;;
5718;SDS011;2884;47.734;9.244;2022-11-15T10:33:47;9.40;;;8.40;;
5718;SDS011;2884;47.734;9.244;2022-11-15T10:41:19;8.60;;;7.70;;
5718;SDS011;2884;47.734;9.244;2022-11-15T10:44:00;9.13;;;7.97;;
5718;SDS011;2884;47.734;9.244;2022-11-15T10:46:42;8.40;;;7.60;;
5718;SDS011;2884;47.734;9.244;2022-11-15T10:49:18;7.87;;;7.07;;
5718;SDS011;2884;47.734;9.244;2022-11-15T10:51:48;10.10;;;7.40;;
5718;SDS011;2884;47.734;9.244;2022-11-15T10:57:12;11.83;;;7.90;;
5718;SDS011;2884;47.734;9.244;2022-11-15T10:59:38;10.57;;;9.00;;
5718;SDS011;2884;47.734;9.244;2022-11-15T11:04:55;9.13;;;7.97;;
5718;SDS011;2884;47.734;9.244;2022-11-15T11:07:26;8.50;;;7.57;;
5718;SDS011;2884;47.734;9.244;2022-11-15T11:10:38;7.83;;;7.13;;
5718;SDS011;2884;47.734;9.244;2022-11-15T11:12:39;8.83;;;7.90;;
5718;SDS011;2884;47.734;9.244;2022-11-15T11:15:09;7.73;;;7.03;;
5718;SDS011;2884;47.734;9.244;2022-11-15T11:20:33;7.10;;;6.40;;
5718;SDS011;2884;47.734;9.244;2022-11-15T11:34:04;8.47;;;7.20;;
5718;SDS011;2884;47.734;9.244;2022-11-15T11:36:40;7.77;;;7.03;;
5718;SDS011;2884;47.734;9.244;2022-11-15T11:47:47;12.63;;;9.30;;
5718;SDS011;2884;47.734;9.244;2022-11-15T11:50:23;8.37;;;7.27;;
5718;SDS011;2884;47.734;9.244;2022-11-15T11:55:37;7.77;;;6.70;;
5718;SDS011;2884;47.734;9.244;2022-11-15T12:01:09;8.50;;;7.00;;
5718;SDS011;2884;47.734;9.244;2022-11-15T12:09:23;6.70;;;6.10;;
5718;SDS011;2884;47.734;9.244;2022-11-15T12:17:01;8.00;;;7.00;;
5718;SDS011;2884;47.734;9.244;2022-11-15T12:19:28;10.93;;;7.07;;
5718;SDS011;2884;47.734;9.244;2022-11-15T12:24:56;8.83;;;7.20;;
5718;SDS011;2884;47.734;9.244;2022-11-15T12:30:07;7.57;;;6.80;;
5718;SDS011;2884;47.734;9.244;2022-11-15T12:32:51;7.90;;;6.80;;
5718;SDS011;2884;47.734;9.244;2022-11-15T12:35:36;8.77;;;7.43;;
5718;SDS011;2884;47.734;9.244;2022-11-15T12:38:04;7.00;;;6.30;;
5718;SDS011;2884;47.734;9.244;2022-11-15T12:40:31;6.77;;;6.07;;
5718;SDS011;2884;47.734;9.244;2022-11-15T12:45:40;8.83;;;7.43;;
5718;SDS011;2884;47.734;9.244;2022-11-15T12:56:09;9.80;;;8.83;;
5718;SDS011;2884;47.734;9.244;2022-11-15T12:58:56;9.57;;;8.57;;
5718;SDS011;2884;47.734;9.244;2022-11-15T13:06:55;14.83;;;9.90;;
5718;SDS011;2884;47.734;9.244;2022-11-15T13:11:58;13.00;;;9.50;;
5718;SDS011;2884;47.734;9.244;2022-11-15T13:17:03;10.73;;;9.63;;
5718;SDS011;2884;47.734;9.244;2022-11-15T13:23:18;9.50;;;8.30;;
5718;SDS011;2884;47.734;9.244;2022-11-15T13:36:49;8.50;;;7.43;;
5718;SDS011;2884;47.734;9.244;2022-11-15T13:39:31;9.17;;;7.60;;
5718;SDS011;2884;47.734;9.244;2022-11-15T13:41:57;8.90;;;7.50;;
5718;SDS011;2884;47.734;9.244;2022-11-15T13:44:24;8.57;;;7.43;;
5718;SDS011;2884;47.734;9.244;2022-11-15T13:47:28;9.37;;;8.13;;
5718;SDS011;2884;47.734;9.244;2022-11-15T13:49:46;8.43;;;7.63;;
5718;SDS011;2884;47.734;9.244;2022-11-15T13:52:13;9.23;;;7.37;;
5718;SDS011;2884;47.734;9.244;2022-11-15T13:54:47;12.40;;;8.47;;
5718;SDS011;2884;47.734;9.244;2022-11-15T13:57:24;7.93;;;6.87;;
5718;SDS011;2884;47.734;9.244;2022-11-15T14:00:26;8.23;;;7.43;;
5718;SDS011;2884;47.734;9.244;2022-11-15T14:03:34;8.77;;;7.43;;
5718;SDS011;2884;47.734;9.244;2022-11-15T14:06:09;8.20;;;6.80;;
5718;SDS011;2884;47.734;9.244;2022-11-15T14:08:38;7.27;;;6.13;;
5718;SDS011;2884;47.734;9.244;2022-11-15T14:11:09;10.23;;;6.37;;
5718;SDS011;2884;47.734;9.244;2022-11-15T14:13:41;9.43;;;7.33;;
5718;SDS011;2884;47.734;9.244;2022-11-15T14:16:20;9.60;;;7.10;;
5718;SDS011;2884;47.734;9.244;2022-11-15T14:18:50;8.17;;;7.37;;
5718;SDS011;2884;47.734;9.244;2022-11-15T14:21:16;13.07;;;7.93;;
5718;SDS011;2884;47.734;9.244;2022-11-15T14:23:43;9.37;;;7.23;;
5718;SDS011;2884;47.734;9.244;2022-11-15T14:26:51;9.13;;;7.90;;
5718;SDS011;2884;47.734;9.244;2022-11-15T14:32:14;11.20;;;7.80;;
5718;SDS011;2884;47.734;9.244;2022-11-15T14:34:39;9.70;;;8.10;;
5718;SDS011;2884;47.734;9.244;2022-11-15T14:37:07;13.47;;;8.70;;
5718;SDS011;2884;47.734;9.244;2022-11-15T14:39:38;8.97;;;8.03;;
5718;SDS011;2884;47.734;9.244;2022-11-15T14:42:03;10.43;;;8.77;;
5718;SDS011;2884;47.734;9.244;2022-11-15T14:44:30;11.67;;;9.00;;
5718;SDS011;2884;47.734;9.244;2022-11-15T14:46:56;11.17;;;9.00;;
5718;SDS011;2884;47.734;9.244;2022-11-15T14:49:21;9.73;;;8.70;;
5718;SDS011;2884;47.734;9.244;2022-11-15T14:51:47;11.23;;;8.17;;
5718;SDS011;2884;47.734;9.244;2022-11-15T14:54:12;9.23;;;8.17;;
5718;SDS011;2884;47.734;9.244;2022-11-15T14:56:38;11.47;;;9.40;;
5718;SDS011;2884;47.734;9.244;2022-11-15T14:59:03;13.00;;;9.53;;
5718;SDS011;2884;47.734;9.244;2022-11-15T15:01:29;11.87;;;9.83;;
5718;SDS011;2884;47.734;9.244;2022-11-15T15:03:54;11.47;;;8.80;;
5718;SDS011;2884;47.734;9.244;2022-11-15T15:06:24;11.50;;;9.10;;
5718;SDS011;2884;47.734;9.244;2022-11-15T15:08:49;10.23;;;9.23;;
5718;SDS011;2884;47.734;9.244;2022-11-15T15:11:21;11.27;;;10.10;;
5718;SDS011;2884;47.734;9.244;2022-11-15T15:13:48;14.93;;;10.30;;
5718;SDS011;2884;47.734;9.244;2022-11-15T15:16:14;13.77;;;10.23;;
5718;SDS011;2884;47.734;9.244;2022-11-15T15:18:39;12.07;;;9.70;;
5718;SDS011;2884;47.734;9.244;2022-11-15T15:21:12;12.97;;;10.83;;
5718;SDS011;2884;47.734;9.244;2022-11-15T15:23:44;13.37;;;11.33;;
5718;SDS011;2884;47.734;9.244;2022-11-15T15:26:10;13.40;;;11.90;;
5718;SDS011;2884;47.734;9.244;2022-11-15T15:28:35;12.97;;;9.87;;
5718;SDS011;2884;47.734;9.244;2022-11-15T15:31:02;14.67;;;11.40;;
5718;SDS011;2884;47.734;9.244;2022-11-15T15:33:27;12.93;;;10.30;;
5718;SDS011;2884;47.734;9.244;2022-11-15T15:35:53;10.70;;;9.60;;
5718;SDS011;2884;47.734;9.244;2022-11-15T15:38:18;12.30;;;10.80;;
5718;SDS011;2884;47.734;9.244;2022-11-15T15:40:44;12.37;;;10.73;;
5718;SDS011;2884;47.734;9.244;2022-11-15T15:43:09;13.17;;;11.73;;
5718;SDS011;2884;47.734;9.244;2022-11-15T15:45:38;12.77;;;10.83;;
5718;SDS011;2884;47.734;9.244;2022-11-15T15:48:05;13.50;;;12.10;;
5718;SDS011;2884;47.734;9.244;2022-11-15T15:50:34;12.70;;;11.27;;
5718;SDS011;2884;47.734;9.244;2022-11-15T15:53:00;16.93;;;11.20;;
5718;SDS011;2884;47.734;9.244;2022-11-15T15:55:27;11.63;;;9.90;;
5718;SDS011;2884;47.734;9.244;2022-11-15T15:57:53;12.93;;;10.37;;
5718;SDS011;2884;47.734;9.244;2022-11-15T16:00:20;12.10;;;10.37;;
5718;SDS011;2884;47.734;9.244;2022-11-15T16:02:48;12.30;;;11.03;;
5718;SDS011;2884;47.734;9.244;2022-11-15T16:05:13;15.63;;;12.63;;
5718;SDS011;2884;47.734;9.244;2022-11-15T16:07:39;14.20;;;12.63;;
5718;SDS011;2884;47.734;9.244;2022-11-15T16:10:25;12.93;;;10.03;;
5718;SDS011;2884;47.734;9.244;2022-11-15T16:12:55;12.63;;;11.33;;
5718;SDS011;2884;47.734;9.244;2022-11-15T16:15:22;16.30;;;10.83;;
5718;SDS011;2884;47.734;9.244;2022-11-15T16:18:08;14.30;;;11.67;;
5718;SDS011;2884;47.734;9.244;2022-11-15T16:20:42;11.23;;;10.13;;
5718;SDS011;2884;47.734;9.244;2022-11-15T16:23:16;13.67;;;11.50;;
5718;SDS011;2884;47.734;9.244;2022-11-15T16:25:51;14.70;;;11.33;;
5718;SDS011;2884;47.734;9.244;2022-11-15T16:33:35;14.43;;;11.50;;
5718;SDS011;2884;47.734;9.244;2022-11-15T16:36:02;17.43;;;12.30;;
5718;SDS011;2884;47.734;9.244;2022-11-15T16:38:28;16.50;;;11.57;;
5718;SDS011;2884;47.734;9.244;2022-11-15T16:40:54;12.83;;;11.17;;
5718;SDS011;2884;47.734;9.244;2022-11-15T16:43:20;15.80;;;12.27;;
5718;SDS011;2884;47.734;9.244;2022-11-15T16:45:45;16.40;;;13.27;;
5718;SDS011;2884;47.734;9.244;2022-11-15T16:48:19;21.80;;;14.50;;
5718;SDS011;2884;47.734;9.244;2022-11-15T16:50:56;15.70;;;12.60;;
5718;SDS011;2884;47.734;9.244;2022-11-15T16:53:22;23.60;;;12.13;;
5718;SDS011;2884;47.734;9.244;2022-11-15T16:55:48;20.20;;;13.13;;
5718;SDS011;2884;47.734;9.244;2022-11-15T16:58:13;13.83;;;11.17;;
5718;SDS011;2884;47.734;9.244;2022-11-15T17:00:39;14.63;;;10.97;;
5718;SDS011;2884;47.734;9.244;2022-11-15T17:03:04;13.93;;;11.30;;
5718;SDS011;2884;47.734;9.244;2022-11-15T17:05:30;20.60;;;13.90;;
5718;SDS011;2884;47.734;9.244;2022-11-15T17:07:55;24.10;;;15.67;;
5718;SDS011;2884;47.734;9.244;2022-11-15T17:10:21;22.07;;;14.00;;
5718;SDS011;2884;47.734;9.244;2022-11-15T17:12:48;20.43;;;12.03;;
5718;SDS011;2884;47.734;9.244;2022-11-15T17:15:14;18.03;;;12.07;;
5718;SDS011;2884;47.734;9.244;2022-11-15T17:17:40;17.23;;;11.03;;
5718;SDS011;2884;47.734;9.244;2022-11-15T17:20:08;17.23;;;12.43;;
5718;SDS011;2884;47.734;9.244;2022-11-15T17:22:39;16.70;;;12.60;;
5718;SDS011;2884;47.734;9.244;2022-11-15T17:25:04;14.13;;;11.90;;
5718;SDS011;2884;47.734;9.244;2022-11-15T17:27:31;15.30;;;12.40;;
5718;SDS011;2884;47.734;9.244;2022-11-15T17:29:56;16.00;;;12.00;;
5718;SDS011;2884;47.734;9.244;2022-11-15T17:32:22;15.23;;;12.20;;
5718;SDS011;2884;47.734;9.244;2022-11-15T17:34:47;22.00;;;13.47;;
5718;SDS011;2884;47.734;9.244;2022-11-15T17:37:13;18.53;;;14.13;;